createdAt,value
2019-04-05T00:00:56.700Z,0.00
2019-04-05T00:01:56.687Z,0.00
2019-04-05T00:02:56.703Z,0.00
2019-04-05T00:03:56.657Z,0.00
2019-04-05T00:04:56.656Z,0.00
2019-04-05T00:05:56.639Z,0.00
2019-04-05T00:06:56.626Z,0.00
2019-04-05T00:07:56.664Z,0.00
2019-04-05T00:08:56.611Z,0.00
2019-04-05T00:09:56.602Z,0.00
2019-04-05T00:10:56.595Z,0.00
2019-04-05T00:11:56.581Z,0.00
2019-04-05T00:12:56.612Z,0.00
2019-04-05T00:13:56.557Z,0.00
2019-04-05T00:14:56.552Z,0.00
2019-04-05T00:15:56.537Z,0.00
2019-04-05T00:16:56.525Z,0.00
2019-04-05T00:17:56.518Z,0.00
2019-04-05T00:18:56.525Z,0.00
2019-04-05T00:19:56.523Z,0.00
2019-04-05T00:20:56.482Z,0.00
2019-04-05T00:21:56.485Z,0.00
2019-04-05T00:22:56.485Z,0.00
2019-04-05T00:23:56.466Z,0.00
2019-04-05T00:24:56.453Z,0.00
2019-04-05T00:25:56.437Z,0.00
2019-04-05T00:26:56.420Z,0.00
2019-04-05T00:27:56.404Z,0.00
2019-04-05T00:28:56.396Z,0.00
2019-04-05T00:29:56.433Z,0.00
2019-04-05T00:30:56.380Z,0.00
2019-04-05T00:31:56.428Z,0.00
2019-04-05T00:32:56.359Z,0.00
2019-04-05T00:33:56.346Z,0.00
2019-04-05T00:34:56.356Z,0.00
2019-04-05T00:35:56.362Z,0.00
2019-04-05T00:36:56.310Z,0.00
2019-04-05T00:37:56.316Z,0.00
2019-04-05T00:38:56.296Z,0.00
2019-04-05T00:39:56.284Z,0.00
2019-04-05T00:40:56.267Z,0.00
2019-04-05T00:41:56.266Z,0.00
2019-04-05T00:42:56.249Z,0.00
2019-04-05T00:43:56.239Z,0.00
2019-04-05T00:44:56.225Z,0.00
2019-04-05T00:45:56.224Z,0.00
2019-04-05T00:46:56.220Z,0.00
2019-04-05T00:47:56.207Z,0.00
2019-04-05T00:48:56.247Z,0.00
2019-04-05T00:49:56.166Z,0.00
2019-04-05T00:50:56.179Z,0.00
2019-04-05T00:51:56.154Z,0.00
2019-04-05T00:52:56.157Z,0.00
2019-04-05T00:53:56.141Z,0.00
2019-04-05T00:54:56.137Z,0.00
2019-04-05T00:55:56.104Z,0.00
2019-04-05T00:56:56.097Z,0.00
2019-04-05T00:57:56.091Z,0.00
2019-04-05T00:58:56.114Z,0.00
2019-04-05T00:59:56.085Z,0.00
2019-04-05T01:00:56.054Z,0.00
2019-04-05T01:01:56.048Z,0.00
2019-04-05T01:02:56.046Z,0.00
2019-04-05T01:03:56.024Z,0.00
2019-04-05T01:04:56.028Z,0.00
2019-04-05T01:05:56.011Z,0.00
2019-04-05T01:06:55.983Z,0.00
2019-04-05T01:07:55.995Z,0.00
2019-04-05T01:08:55.993Z,0.00
2019-04-05T01:09:55.958Z,0.00
2019-04-05T01:10:55.954Z,0.00
2019-04-05T01:11:56.010Z,0.00
2019-04-05T01:12:55.923Z,0.00
2019-04-05T01:13:55.928Z,0.00
2019-04-05T01:14:55.908Z,0.00
2019-04-05T01:15:55.901Z,0.00
2019-04-05T01:16:55.900Z,0.00
2019-04-05T01:17:55.893Z,0.00
2019-04-05T01:18:55.864Z,0.00
2019-04-05T01:19:55.879Z,0.00
2019-04-05T01:20:55.846Z,0.00
2019-04-05T01:21:55.836Z,0.00
2019-04-05T01:22:55.826Z,0.00
2019-04-05T01:23:55.809Z,0.00
2019-04-05T01:24:55.809Z,0.00
2019-04-05T01:25:55.818Z,0.00
2019-04-05T01:26:55.783Z,0.00
2019-04-05T01:27:55.768Z,0.00
2019-04-05T01:28:55.778Z,0.00
2019-04-05T01:29:55.751Z,0.00
2019-04-05T01:30:55.742Z,0.00
2019-04-05T01:31:55.722Z,0.00
2019-04-05T01:32:55.726Z,0.00
2019-04-05T01:33:55.718Z,0.00
2019-04-05T01:34:55.703Z,0.00
2019-04-05T01:35:55.677Z,0.00
2019-04-05T01:36:55.681Z,0.00
2019-04-05T01:37:55.667Z,0.00
2019-04-05T01:38:55.661Z,0.00
2019-04-05T01:39:55.642Z,0.00
2019-04-05T01:40:55.642Z,0.00
2019-04-05T01:41:55.621Z,0.00
2019-04-05T01:42:55.609Z,0.00
2019-04-05T01:43:55.604Z,0.00
2019-04-05T01:44:55.601Z,0.00
2019-04-05T01:45:55.566Z,0.00
2019-04-05T01:46:55.574Z,0.00
2019-04-05T01:47:55.550Z,0.00
2019-04-05T01:48:55.558Z,0.00
2019-04-05T01:49:55.532Z,0.00
2019-04-05T01:50:55.527Z,0.00
2019-04-05T01:51:55.519Z,0.00
2019-04-05T01:52:55.495Z,0.00
2019-04-05T01:53:55.527Z,0.00
2019-04-05T01:54:55.513Z,0.00
2019-04-05T01:55:55.469Z,0.00
2019-04-05T01:56:55.459Z,0.00
2019-04-05T01:57:55.459Z,0.00
2019-04-05T01:58:55.437Z,0.00
2019-04-05T01:59:55.423Z,0.00
2019-04-05T02:00:55.426Z,0.00
2019-04-05T02:01:55.402Z,0.00
2019-04-05T02:02:55.395Z,0.00
2019-04-05T02:03:55.379Z,0.00
2019-04-05T02:04:55.380Z,0.00
2019-04-05T02:05:55.357Z,0.00
2019-04-05T02:06:55.371Z,0.00
2019-04-05T02:07:55.351Z,0.00
2019-04-05T02:08:55.338Z,0.00
2019-04-05T02:09:55.349Z,0.00
2019-04-05T02:10:55.300Z,0.00
2019-04-05T02:11:55.326Z,0.00
2019-04-05T02:12:55.336Z,0.00
2019-04-05T02:13:55.285Z,0.00
2019-04-05T02:14:55.275Z,0.00
2019-04-05T02:16:05.710Z,0.00
2019-04-05T02:16:56.256Z,0.00
2019-04-05T02:17:55.259Z,0.00
2019-04-05T02:18:55.218Z,0.00
2019-04-05T02:19:55.226Z,0.00
2019-04-05T02:20:55.229Z,0.00
2019-04-05T02:21:55.190Z,0.00
2019-04-05T02:22:55.168Z,0.00
2019-04-05T02:23:55.183Z,0.00
2019-04-05T02:24:55.148Z,0.00
2019-04-05T02:25:55.151Z,0.00
2019-04-05T02:26:55.131Z,0.00
2019-04-05T02:27:55.124Z,0.00
2019-04-05T02:28:55.114Z,0.00
2019-04-05T02:29:57.759Z,0.00
2019-04-05T02:30:55.115Z,0.00
2019-04-05T02:31:55.085Z,0.00
2019-04-05T02:32:55.071Z,0.00
2019-04-05T02:33:55.057Z,0.00
2019-04-05T02:34:55.047Z,0.00
2019-04-05T02:35:55.050Z,0.00
2019-04-05T02:36:55.038Z,0.00
2019-04-05T02:37:55.010Z,0.00
2019-04-05T02:38:55.004Z,0.00
2019-04-05T02:39:55.001Z,0.00
2019-04-05T02:40:58.343Z,0.00
2019-04-05T02:41:54.988Z,0.00
2019-04-05T02:42:54.962Z,0.00
2019-04-05T02:43:54.961Z,0.00
2019-04-05T02:44:54.940Z,0.00
2019-04-05T02:45:54.943Z,0.00
2019-04-05T02:46:54.947Z,0.00
2019-04-05T02:47:54.920Z,0.00
2019-04-05T02:48:54.890Z,0.00
2019-04-05T02:49:54.885Z,0.00
2019-04-05T02:50:54.860Z,0.00
2019-04-05T02:51:54.868Z,0.00
2019-04-05T02:52:54.876Z,0.00
2019-04-05T02:53:54.860Z,0.00
2019-04-05T02:54:54.830Z,0.00
2019-04-05T02:55:54.825Z,0.00
2019-04-05T02:56:54.798Z,0.00
2019-04-05T02:57:54.796Z,0.00
2019-04-05T02:58:54.798Z,0.00
2019-04-05T02:59:54.783Z,0.00
2019-04-05T03:00:54.785Z,0.00
2019-04-05T03:01:54.763Z,0.00
2019-04-05T03:02:54.742Z,0.00
2019-04-05T03:03:54.758Z,0.00
2019-04-05T03:04:54.737Z,0.00
2019-04-05T03:05:54.713Z,0.00
2019-04-05T03:06:54.704Z,0.00
2019-04-05T03:07:54.701Z,0.00
2019-04-05T03:08:54.667Z,0.00
2019-04-05T03:09:54.658Z,0.00
2019-04-05T03:10:54.649Z,0.00
2019-04-05T03:11:54.643Z,0.00
2019-04-05T03:12:54.633Z,0.00
2019-04-05T03:13:54.631Z,0.00
2019-04-05T03:14:54.605Z,0.00
2019-04-05T03:15:54.599Z,0.00
2019-04-05T03:16:54.593Z,0.00
2019-04-05T03:17:54.573Z,0.00
2019-04-05T03:18:54.577Z,0.00
2019-04-05T03:19:54.565Z,0.00
2019-04-05T03:20:54.544Z,0.00
2019-04-05T03:21:54.534Z,0.00
2019-04-05T03:22:54.526Z,0.00
2019-04-05T03:23:54.534Z,0.00
2019-04-05T03:24:54.517Z,0.00
2019-04-05T03:25:54.498Z,0.00
2019-04-05T03:26:54.475Z,0.00
2019-04-05T03:27:54.461Z,0.00
2019-04-05T03:28:54.453Z,0.00
2019-04-05T03:29:54.467Z,0.00
2019-04-05T03:30:54.454Z,0.00
2019-04-05T03:31:54.495Z,0.00
2019-04-05T03:32:54.419Z,0.00
2019-04-05T03:33:54.416Z,0.00
2019-04-05T03:34:54.417Z,0.00
2019-04-05T03:35:54.398Z,0.00
2019-04-05T03:36:54.432Z,0.00
2019-04-05T03:37:54.419Z,0.00
2019-04-05T03:38:54.348Z,0.00
2019-04-05T03:39:54.408Z,0.00
2019-04-05T03:40:54.328Z,0.00
2019-04-05T03:41:54.334Z,0.00
2019-04-05T03:42:54.320Z,0.00
2019-04-05T03:43:54.303Z,0.00
2019-04-05T03:44:54.299Z,0.00
2019-04-05T03:45:54.278Z,0.00
2019-04-05T03:46:56.872Z,0.00
2019-04-05T03:47:54.255Z,0.00
2019-04-05T03:48:54.235Z,0.00
2019-04-05T03:49:54.266Z,0.00
2019-04-05T03:50:54.218Z,0.00
2019-04-05T03:51:54.235Z,0.00
2019-04-05T03:52:54.199Z,0.00
2019-04-05T03:53:54.197Z,0.00
2019-04-05T03:54:54.203Z,0.00
2019-04-05T03:55:54.181Z,0.00
2019-04-05T03:56:54.161Z,0.00
2019-04-05T03:57:54.152Z,0.00
2019-04-05T03:58:54.147Z,0.00
2019-04-05T03:59:54.117Z,0.00
2019-04-05T04:00:54.114Z,0.00
2019-04-05T04:01:54.103Z,0.00
2019-04-05T04:02:54.101Z,0.00
2019-04-05T04:03:54.096Z,0.00
2019-04-05T04:04:54.099Z,0.00
2019-04-05T04:05:54.066Z,0.00
2019-04-05T04:06:54.048Z,0.00
2019-04-05T04:07:54.033Z,0.00
2019-04-05T04:08:54.044Z,0.00
2019-04-05T04:09:54.023Z,0.00
2019-04-05T04:10:54.017Z,0.00
2019-04-05T04:11:54.019Z,0.00
2019-04-05T04:12:54.008Z,0.00
2019-04-05T04:13:53.978Z,0.00
2019-04-05T04:14:53.993Z,0.00
2019-04-05T04:15:53.960Z,0.00
2019-04-05T04:16:53.960Z,0.00
2019-04-05T04:17:53.937Z,0.00
2019-04-05T04:18:53.923Z,0.00
2019-04-05T04:19:53.909Z,0.00
2019-04-05T04:20:53.922Z,0.00
2019-04-05T04:21:53.895Z,0.00
2019-04-05T04:22:53.887Z,0.00
2019-04-05T04:23:53.887Z,0.00
2019-04-05T04:24:53.851Z,0.00
2019-04-05T04:25:53.890Z,0.00
2019-04-05T04:26:53.847Z,0.00
2019-04-05T04:27:53.840Z,0.00
2019-04-05T04:28:53.829Z,0.00
2019-04-05T04:29:53.827Z,0.00
2019-04-05T04:30:53.812Z,0.00
2019-04-05T04:31:53.782Z,0.00
2019-04-05T04:32:53.770Z,0.00
2019-04-05T04:33:53.788Z,0.00
2019-04-05T04:34:53.754Z,0.00
2019-04-05T04:35:53.750Z,0.00
2019-04-05T04:36:53.756Z,0.00
2019-04-05T04:37:53.724Z,0.00
2019-04-05T04:38:53.726Z,0.00
2019-04-05T04:39:53.705Z,0.00
2019-04-05T04:40:53.709Z,0.00
2019-04-05T04:41:53.676Z,0.00
2019-04-05T04:42:53.674Z,0.00
2019-04-05T04:43:53.662Z,0.00
2019-04-05T04:44:53.652Z,0.00
2019-04-05T04:45:53.631Z,0.00
2019-04-05T04:46:53.625Z,0.00
2019-04-05T04:47:53.621Z,0.00
2019-04-05T04:48:53.624Z,0.00
2019-04-05T04:49:53.601Z,0.00
2019-04-05T04:50:53.592Z,0.00
2019-04-05T04:51:53.579Z,0.00
2019-04-05T04:52:53.556Z,0.00
2019-04-05T04:53:53.546Z,0.00
2019-04-05T04:54:53.537Z,0.00
2019-04-05T04:55:53.545Z,0.00
2019-04-05T04:56:53.513Z,0.00
2019-04-05T04:57:53.509Z,0.00
2019-04-05T04:58:53.532Z,0.00
2019-04-05T04:59:53.486Z,0.00
2019-04-05T05:00:53.526Z,0.00
2019-04-05T05:01:53.483Z,0.00
2019-04-05T05:02:53.454Z,0.00
2019-04-05T05:03:53.446Z,0.00
2019-04-05T05:04:53.433Z,0.00
2019-04-05T05:05:53.425Z,5.62
2019-04-05T05:06:53.424Z,5.62
2019-04-05T05:07:53.419Z,5.62
2019-04-05T05:08:53.394Z,5.62
2019-04-05T05:09:53.384Z,5.62
2019-04-05T05:10:53.367Z,5.62
2019-04-05T05:11:53.376Z,5.62
2019-04-05T05:12:53.351Z,5.62
2019-04-05T05:13:53.353Z,5.62
2019-04-05T05:14:53.322Z,5.62
2019-04-05T05:15:53.328Z,5.62
2019-04-05T05:16:53.299Z,5.62
2019-04-05T05:17:58.766Z,11.25
2019-04-05T05:18:54.300Z,11.25
2019-04-05T05:19:53.279Z,11.25
2019-04-05T05:20:53.263Z,11.25
2019-04-05T05:21:53.273Z,11.25
2019-04-05T05:22:53.237Z,11.25
2019-04-05T05:23:53.235Z,11.25
2019-04-05T05:24:53.227Z,11.25
2019-04-05T05:25:53.206Z,11.25
2019-04-05T05:26:53.198Z,16.88
2019-04-05T05:27:53.202Z,16.88
2019-04-05T05:28:53.224Z,16.88
2019-04-05T05:29:53.182Z,16.88
2019-04-05T05:30:53.155Z,16.88
2019-04-05T05:31:53.157Z,22.50
2019-04-05T05:32:53.138Z,22.50
2019-04-05T05:33:53.134Z,22.50
2019-04-05T05:35:01.894Z,22.50
2019-04-05T05:35:54.095Z,28.12
2019-04-05T05:36:53.105Z,28.12
2019-04-05T05:37:53.078Z,28.12
2019-04-05T05:38:53.077Z,28.12
2019-04-05T05:39:53.094Z,33.75
2019-04-05T05:40:53.049Z,33.75
2019-04-05T05:41:53.049Z,33.75
2019-04-05T05:42:53.042Z,33.75
2019-04-05T05:43:53.016Z,39.38
2019-04-05T05:44:53.032Z,39.38
2019-04-05T05:45:52.999Z,39.38
2019-04-05T05:46:52.997Z,39.38
2019-04-05T05:47:52.968Z,45.00
2019-04-05T05:48:52.959Z,45.00
2019-04-05T05:49:52.949Z,45.00
2019-04-05T05:50:52.944Z,45.00
2019-04-05T05:51:52.935Z,50.62
2019-04-05T05:52:52.937Z,50.62
2019-04-05T05:53:52.908Z,50.62
2019-04-05T05:54:52.905Z,50.62
2019-04-05T05:55:52.895Z,56.25
2019-04-05T05:56:52.873Z,56.25
2019-04-05T05:57:55.335Z,56.25
2019-04-05T05:58:55.307Z,61.88
2019-04-05T05:59:52.878Z,61.88
2019-04-05T06:00:52.832Z,61.88
2019-04-05T06:01:52.826Z,67.50
2019-04-05T06:02:52.817Z,67.50
2019-04-05T06:03:52.823Z,67.50
2019-04-05T06:04:52.796Z,67.50
2019-04-05T06:06:03.566Z,73.12
2019-04-05T06:06:53.773Z,73.12
2019-04-05T06:07:52.783Z,73.12
2019-04-05T06:08:52.763Z,78.75
2019-04-05T06:09:52.738Z,78.75
2019-04-05T06:10:52.737Z,78.75
2019-04-05T06:11:52.723Z,78.75
2019-04-05T06:12:52.712Z,84.38
2019-04-05T06:13:52.722Z,84.38
2019-04-05T06:14:52.685Z,84.38
2019-04-05T06:15:52.680Z,84.38
2019-04-05T06:16:52.673Z,84.38
2019-04-05T06:18:04.127Z,90.00
2019-04-05T06:18:53.658Z,90.00
2019-04-05T06:19:52.636Z,90.00
2019-04-05T06:20:52.631Z,90.00
2019-04-05T06:21:52.623Z,90.00
2019-04-05T06:22:52.600Z,90.00
2019-04-05T06:23:52.591Z,90.00
2019-04-05T06:24:52.596Z,90.00
2019-04-05T06:25:52.568Z,90.00
2019-04-05T06:26:52.554Z,90.00
2019-04-05T06:27:52.544Z,90.00
2019-04-05T06:28:52.637Z,90.00
2019-04-05T06:29:52.530Z,90.00
2019-04-05T06:30:52.542Z,90.00
2019-04-05T06:31:52.507Z,95.62
2019-04-05T06:32:52.490Z,95.62
2019-04-05T06:33:52.487Z,95.62
2019-04-05T06:34:52.472Z,101.25
2019-04-05T06:35:52.486Z,101.25
2019-04-05T06:36:52.454Z,101.25
2019-04-05T06:37:52.441Z,101.25
2019-04-05T06:38:52.431Z,101.25
2019-04-05T06:39:52.416Z,101.25
2019-04-05T06:40:52.443Z,101.25
2019-04-05T06:41:52.393Z,101.25
2019-04-05T06:42:52.392Z,95.62
2019-04-05T06:43:52.393Z,95.62
2019-04-05T06:44:52.367Z,95.62
2019-04-05T06:45:52.407Z,95.62
2019-04-05T06:46:52.342Z,95.62
2019-04-05T06:47:52.332Z,95.62
2019-04-05T06:48:52.327Z,101.25
2019-04-05T06:49:52.322Z,101.25
2019-04-05T06:50:52.371Z,101.25
2019-04-05T06:51:52.361Z,106.88
2019-04-05T06:52:52.287Z,106.88
2019-04-05T06:53:52.291Z,106.88
2019-04-05T06:54:52.267Z,112.50
2019-04-05T06:55:52.268Z,112.50
2019-04-05T06:56:52.247Z,118.12
2019-04-05T06:57:52.240Z,118.12
2019-04-05T06:58:52.212Z,123.75
2019-04-05T06:59:52.205Z,123.75
2019-04-05T07:00:57.259Z,123.75
2019-04-05T07:01:53.198Z,129.38
2019-04-05T07:02:52.183Z,129.38
2019-04-05T07:03:55.067Z,135.00
2019-04-05T07:04:52.169Z,140.62
2019-04-05T07:05:52.154Z,146.25
2019-04-05T07:06:52.155Z,151.88
2019-04-05T07:07:52.151Z,151.88
2019-04-05T07:08:54.029Z,157.50
2019-04-05T07:09:52.126Z,163.12
2019-04-05T07:10:52.081Z,168.75
2019-04-05T07:11:52.076Z,174.38
2019-04-05T07:12:52.134Z,180.00
2019-04-05T07:13:52.061Z,180.00
2019-04-05T07:14:52.063Z,185.62
2019-04-05T07:15:52.033Z,185.62
2019-04-05T07:16:52.043Z,185.62
2019-04-05T07:17:52.022Z,191.25
2019-04-05T07:18:51.995Z,196.88
2019-04-05T07:19:51.992Z,202.50
2019-04-05T07:20:51.998Z,202.50
2019-04-05T07:21:51.971Z,202.50
2019-04-05T07:22:51.953Z,202.50
2019-04-05T07:23:51.946Z,202.50
2019-04-05T07:24:51.934Z,208.12
2019-04-05T07:25:51.931Z,219.38
2019-04-05T07:26:51.917Z,236.25
2019-04-05T07:27:51.906Z,247.50
2019-04-05T07:28:51.894Z,275.62
2019-04-05T07:29:51.917Z,298.12
2019-04-05T07:30:51.902Z,315.00
2019-04-05T07:31:51.858Z,326.25
2019-04-05T07:32:51.847Z,348.75
2019-04-05T07:33:51.835Z,365.62
2019-04-05T07:34:51.842Z,399.38
2019-04-05T07:35:51.824Z,427.50
2019-04-05T07:36:51.813Z,489.38
2019-04-05T07:37:51.792Z,675.00
2019-04-05T07:38:51.796Z,838.12
2019-04-05T07:39:51.889Z,720.00
2019-04-05T07:40:51.803Z,815.62
2019-04-05T07:41:51.758Z,1665.00
2019-04-05T07:42:51.739Z,1012.50
2019-04-05T07:43:51.729Z,967.50
2019-04-05T07:44:51.738Z,1175.62
2019-04-05T07:45:51.710Z,1226.25
2019-04-05T07:46:51.737Z,1130.62
2019-04-05T07:47:51.691Z,1220.62
2019-04-05T07:48:51.681Z,793.12
2019-04-05T07:49:51.669Z,630.00
2019-04-05T07:50:51.653Z,770.62
2019-04-05T07:51:51.655Z,703.12
2019-04-05T07:52:51.652Z,922.50
2019-04-05T07:53:51.626Z,1164.38
2019-04-05T07:54:51.609Z,528.75
2019-04-05T07:55:51.602Z,500.62
2019-04-05T07:56:51.607Z,523.12
2019-04-05T07:57:51.580Z,511.88
2019-04-05T07:58:51.575Z,523.12
2019-04-05T07:59:51.560Z,523.12
2019-04-05T08:00:51.548Z,517.50
2019-04-05T08:01:51.561Z,495.00
2019-04-05T08:02:51.561Z,478.12
2019-04-05T08:03:51.519Z,466.88
2019-04-05T08:04:51.531Z,455.62
2019-04-05T08:05:51.491Z,444.38
2019-04-05T08:06:51.484Z,444.38
2019-04-05T08:07:51.471Z,438.75
2019-04-05T08:08:51.472Z,433.12
2019-04-05T08:09:51.446Z,433.12
2019-04-05T08:10:51.443Z,444.38
2019-04-05T08:11:51.427Z,455.62
2019-04-05T08:12:51.415Z,461.25
2019-04-05T08:13:51.413Z,450.00
2019-04-05T08:14:51.401Z,438.75
2019-04-05T08:15:51.390Z,427.50
2019-04-05T08:16:51.388Z,421.88
2019-04-05T08:17:51.358Z,416.25
2019-04-05T08:18:57.727Z,427.50
2019-04-05T08:19:52.352Z,427.50
2019-04-05T08:20:51.332Z,438.75
2019-04-05T08:21:51.340Z,455.62
2019-04-05T08:22:51.306Z,472.50
2019-04-05T08:23:51.299Z,483.75
2019-04-05T08:24:51.302Z,489.38
2019-04-05T08:25:51.301Z,506.25
2019-04-05T08:26:51.286Z,523.12
2019-04-05T08:27:51.261Z,534.38
2019-04-05T08:28:51.249Z,556.88
2019-04-05T08:29:51.285Z,556.88
2019-04-05T08:30:51.231Z,556.88
2019-04-05T08:31:51.212Z,551.25
2019-04-05T08:32:51.201Z,545.62
2019-04-05T08:33:51.201Z,573.75
2019-04-05T08:34:51.177Z,551.25
2019-04-05T08:35:51.207Z,534.38
2019-04-05T08:36:51.156Z,511.88
2019-04-05T08:37:51.143Z,500.62
2019-04-05T08:38:51.150Z,495.00
2019-04-05T08:39:51.128Z,489.38
2019-04-05T08:40:51.132Z,472.50
2019-04-05T08:41:51.102Z,472.50
2019-04-05T08:42:51.102Z,483.75
2019-04-05T08:43:51.088Z,506.25
2019-04-05T08:44:51.075Z,540.00
2019-04-05T08:45:51.073Z,590.62
2019-04-05T08:46:51.064Z,630.00
2019-04-05T08:47:51.195Z,652.50
2019-04-05T08:48:52.373Z,708.75
2019-04-05T08:49:51.018Z,641.25
2019-04-05T08:50:51.017Z,613.12
2019-04-05T08:51:51.018Z,618.75
2019-04-05T08:52:50.990Z,568.12
2019-04-05T08:53:50.984Z,511.88
2019-04-05T08:54:50.963Z,483.75
2019-04-05T08:55:50.954Z,489.38
2019-04-05T08:56:50.964Z,500.62
2019-04-05T08:57:50.942Z,540.00
2019-04-05T08:58:50.918Z,590.62
2019-04-05T08:59:53.262Z,545.62
2019-04-05T09:00:50.901Z,511.88
2019-04-05T09:01:50.896Z,540.00
2019-04-05T09:02:51.013Z,680.62
2019-04-05T09:03:50.874Z,663.75
2019-04-05T09:04:50.863Z,691.88
2019-04-05T09:05:50.852Z,641.25
2019-04-05T09:06:50.841Z,618.75
2019-04-05T09:07:50.838Z,686.25
2019-04-05T09:08:50.830Z,815.62
2019-04-05T09:09:50.799Z,832.50
2019-04-05T09:10:50.797Z,624.38
2019-04-05T09:11:50.793Z,540.00
2019-04-05T09:12:50.772Z,545.62
2019-04-05T09:13:50.777Z,641.25
2019-04-05T09:14:50.767Z,534.38
2019-04-05T09:15:50.739Z,500.62
2019-04-05T09:16:50.729Z,438.75
2019-04-05T09:17:50.722Z,393.75
2019-04-05T09:18:50.708Z,376.88
2019-04-05T09:19:53.757Z,382.50
2019-04-05T09:20:50.686Z,421.88
2019-04-05T09:21:50.716Z,433.12
2019-04-05T09:22:50.666Z,444.38
2019-04-05T09:23:50.662Z,455.62
2019-04-05T09:24:50.665Z,461.25
2019-04-05T09:25:50.637Z,461.25
2019-04-05T09:26:50.617Z,483.75
2019-04-05T09:27:50.608Z,495.00
2019-04-05T09:28:50.600Z,472.50
2019-04-05T09:29:50.598Z,450.00
2019-04-05T09:30:52.027Z,433.12
2019-04-05T09:31:50.570Z,388.12
2019-04-05T09:32:50.560Z,365.62
2019-04-05T09:33:50.543Z,337.50
2019-04-05T09:34:50.540Z,348.75
2019-04-05T09:35:50.549Z,365.62
2019-04-05T09:36:50.526Z,371.25
2019-04-05T09:37:50.514Z,360.00
2019-04-05T09:38:50.491Z,348.75
2019-04-05T09:39:50.487Z,343.12
2019-04-05T09:40:50.470Z,343.12
2019-04-05T09:41:50.475Z,331.88
2019-04-05T09:42:50.455Z,320.62
2019-04-05T09:43:50.468Z,315.00
2019-04-05T09:44:50.426Z,315.00
2019-04-05T09:45:50.417Z,315.00
2019-04-05T09:46:51.307Z,303.75
2019-04-05T09:47:54.763Z,292.50
2019-04-05T09:48:50.398Z,292.50
2019-04-05T09:49:50.378Z,292.50
2019-04-05T09:50:50.359Z,286.88
2019-04-05T09:51:50.352Z,286.88
2019-04-05T09:52:50.363Z,292.50
2019-04-05T09:53:50.351Z,286.88
2019-04-05T09:54:50.327Z,281.25
2019-04-05T09:55:50.343Z,270.00
2019-04-05T09:56:50.301Z,258.75
2019-04-05T09:57:50.341Z,253.12
2019-04-05T09:58:50.285Z,258.75
2019-04-05T09:59:50.266Z,258.75
2019-04-05T10:00:50.264Z,264.38
2019-04-05T10:01:50.254Z,258.75
2019-04-05T10:02:50.243Z,253.12
2019-04-05T10:03:50.224Z,247.50
2019-04-05T10:04:50.211Z,241.88
2019-04-05T10:05:50.196Z,241.88
2019-04-05T10:06:50.200Z,253.12
2019-04-05T10:07:55.142Z,264.38
2019-04-05T10:08:51.171Z,281.25
2019-04-05T10:09:50.516Z,292.50
2019-04-05T10:10:50.144Z,303.75
2019-04-05T10:11:50.140Z,348.75
2019-04-05T10:12:50.145Z,405.00
2019-04-05T10:13:50.149Z,416.25
2019-04-05T10:14:50.107Z,399.38
2019-04-05T10:15:50.094Z,388.12
2019-04-05T10:16:50.104Z,382.50
2019-04-05T10:17:50.071Z,376.88
2019-04-05T10:18:51.504Z,371.25
2019-04-05T10:19:50.586Z,365.62
2019-04-05T10:20:50.038Z,365.62
2019-04-05T10:21:50.037Z,376.88
2019-04-05T10:22:50.017Z,382.50
2019-04-05T10:23:50.023Z,360.00
2019-04-05T10:24:50.016Z,343.12
2019-04-05T10:25:49.982Z,354.38
2019-04-05T10:26:49.979Z,354.38
2019-04-05T10:27:49.967Z,348.75
2019-04-05T10:28:49.965Z,354.38
2019-04-05T10:29:49.956Z,326.25
2019-04-05T10:30:51.914Z,315.00
2019-04-05T10:31:49.929Z,337.50
2019-04-05T10:32:49.913Z,348.75
2019-04-05T10:33:49.901Z,315.00
2019-04-05T10:34:49.898Z,315.00
2019-04-05T10:35:49.875Z,331.88
2019-04-05T10:36:49.865Z,337.50
2019-04-05T10:37:49.854Z,354.38
2019-04-05T10:38:49.850Z,388.12
2019-04-05T10:39:49.865Z,388.12
2019-04-05T10:40:49.826Z,371.25
2019-04-05T10:42:02.447Z,376.88
2019-04-05T10:42:50.796Z,371.25
2019-04-05T10:43:49.790Z,354.38
2019-04-05T10:44:49.788Z,348.75
2019-04-05T10:45:49.767Z,376.88
2019-04-05T10:46:49.774Z,410.62
2019-04-05T10:47:49.752Z,444.38
2019-04-05T10:48:49.744Z,472.50
2019-04-05T10:49:57.073Z,478.12
2019-04-05T10:50:50.726Z,478.12
2019-04-05T10:51:49.718Z,472.50
2019-04-05T10:52:49.711Z,461.25
2019-04-05T10:53:49.703Z,427.50
2019-04-05T10:54:49.666Z,399.38
2019-04-05T10:55:49.672Z,371.25
2019-04-05T10:56:49.650Z,382.50
2019-04-05T10:57:49.644Z,393.75
2019-04-05T10:58:49.630Z,388.12
2019-04-05T10:59:49.624Z,376.88
2019-04-05T11:00:49.637Z,382.50
2019-04-05T11:01:49.595Z,388.12
2019-04-05T11:02:49.611Z,376.88
2019-04-05T11:03:49.580Z,382.50
2019-04-05T11:04:49.567Z,399.38
2019-04-05T11:05:49.705Z,393.75
2019-04-05T11:06:49.546Z,388.12
2019-04-05T11:07:49.560Z,393.75
2019-04-05T11:08:49.521Z,393.75
2019-04-05T11:09:49.520Z,393.75
2019-04-05T11:10:49.508Z,393.75
2019-04-05T11:11:49.487Z,405.00
2019-04-05T11:12:50.199Z,405.00
2019-04-05T11:13:49.463Z,382.50
2019-04-05T11:14:49.462Z,360.00
2019-04-05T11:15:49.485Z,337.50
2019-04-05T11:16:58.428Z,331.88
2019-04-05T11:17:50.430Z,337.50
2019-04-05T11:18:49.409Z,337.50
2019-04-05T11:19:49.403Z,315.00
2019-04-05T11:20:49.835Z,292.50
2019-04-05T11:21:52.195Z,264.38
2019-04-05T11:22:50.997Z,247.50
2019-04-05T11:23:49.360Z,247.50
2019-04-05T11:24:49.348Z,258.75
2019-04-05T11:25:49.373Z,275.62
2019-04-05T11:26:49.352Z,281.25
2019-04-05T11:27:49.316Z,281.25
2019-04-05T11:28:49.313Z,281.25
2019-04-05T11:29:49.305Z,281.25
2019-04-05T11:30:49.287Z,275.62
2019-04-05T11:31:57.041Z,270.00
2019-04-05T11:32:50.267Z,264.38
2019-04-05T11:33:49.253Z,264.38
2019-04-05T11:34:49.243Z,275.62
2019-04-05T11:35:49.235Z,275.62
2019-04-05T11:36:49.225Z,270.00
2019-04-05T11:37:50.700Z,270.00
2019-04-05T11:38:50.885Z,275.62
2019-04-05T11:39:49.597Z,286.88
2019-04-05T11:40:49.188Z,292.50
2019-04-05T11:41:49.163Z,298.12
2019-04-05T11:42:49.165Z,286.88
2019-04-05T11:43:49.143Z,270.00
2019-04-05T11:44:49.151Z,247.50
2019-04-05T11:45:50.826Z,225.00
2019-04-05T11:46:49.808Z,208.12
2019-04-05T11:47:49.120Z,202.50
2019-04-05T11:48:49.109Z,191.25
2019-04-05T11:49:49.080Z,191.25
2019-04-05T11:50:49.068Z,196.88
2019-04-05T11:51:49.061Z,196.88
2019-04-05T11:52:49.045Z,196.88
2019-04-05T11:53:49.049Z,185.62
2019-04-05T11:54:49.031Z,174.38
2019-04-05T11:55:49.033Z,157.50
2019-04-05T11:56:49.017Z,151.88
2019-04-05T11:57:48.991Z,151.88
2019-04-05T11:58:49.160Z,157.50
2019-04-05T11:59:49.291Z,151.88
2019-04-05T12:00:48.993Z,151.88
2019-04-05T12:01:48.947Z,146.25
2019-04-05T12:02:48.941Z,146.25
2019-04-05T12:03:48.926Z,140.62
2019-04-05T12:04:48.915Z,135.00
2019-04-05T12:05:48.918Z,135.00
2019-04-05T12:06:51.766Z,135.00
2019-04-05T12:07:48.907Z,140.62
2019-04-05T12:08:48.874Z,140.62
2019-04-05T12:09:48.857Z,146.25
2019-04-05T12:10:48.865Z,146.25
2019-04-05T12:11:48.862Z,151.88
2019-04-05T12:12:48.834Z,157.50
2019-04-05T12:13:48.822Z,157.50
2019-04-05T12:14:48.837Z,157.50
2019-04-05T12:15:48.797Z,151.88
2019-04-05T12:16:48.812Z,146.25
2019-04-05T12:17:48.777Z,146.25
2019-04-05T12:18:48.762Z,140.62
2019-04-05T12:19:48.759Z,140.62
2019-04-05T12:20:57.828Z,140.62
2019-04-05T12:21:49.755Z,146.25
2019-04-05T12:22:48.737Z,146.25
2019-04-05T12:23:48.707Z,146.25
2019-04-05T12:24:48.731Z,146.25
2019-04-05T12:25:48.690Z,140.62
2019-04-05T12:26:48.691Z,135.00
2019-04-05T12:27:48.673Z,129.38
2019-04-05T12:28:48.654Z,123.75
2019-04-05T12:29:48.659Z,123.75
2019-04-05T12:30:48.636Z,123.75
2019-04-05T12:31:48.621Z,123.75
2019-04-05T12:32:48.917Z,123.75
2019-04-05T12:33:51.359Z,123.75
2019-04-05T12:34:49.512Z,118.12
2019-04-05T12:35:51.649Z,112.50
2019-04-05T12:36:48.583Z,112.50
2019-04-05T12:37:50.382Z,118.12
2019-04-05T12:38:48.563Z,123.75
2019-04-05T12:39:48.541Z,129.38
2019-04-05T12:40:48.534Z,135.00
2019-04-05T12:41:48.512Z,135.00
2019-04-05T12:42:48.511Z,135.00
2019-04-05T12:43:50.933Z,135.00
2019-04-05T12:44:48.486Z,140.62
2019-04-05T12:45:48.483Z,140.62
2019-04-05T12:46:48.467Z,140.62
2019-04-05T12:47:48.474Z,146.25
2019-04-05T12:48:48.454Z,151.88
2019-04-05T12:49:48.428Z,151.88
2019-04-05T12:51:00.593Z,146.25